Time;durP1;ratioP1;P1;durP2;ratioP2;P2;SDS_P1;SDS_P2;PMS_P1;PMS_P2;Temp;Humidity;BMP_temperature;BMP_pressure;BME280_temperature;BME280_humidity;BME280_pressure;Samples;Min_cycle;Max_cycle;Signal;HPM_P1;HPM_P2
2022/10/03 00:02:35;;;;;;;19.80;13.23;;;;;;;9.24;100.00;101254.09;5039055;28;20634;-73
2022/10/03 00:05:22;;;;;;;18.60;12.10;;;;;;;9.25;100.00;101242.44;5036286;28;20201;-74
2022/10/03 00:08:04;;;;;;;20.40;13.18;;;;;;;9.35;100.00;101241.25;5029790;28;20566;-74
2022/10/03 00:10:45;;;;;;;15.82;12.27;;;;;;;9.47;100.00;101244.53;5024285;28;20247;-73
2022/10/03 00:13:20;;;;;;;22.42;14.10;;;;;;;9.37;100.00;101247.47;5013754;28;20209;-73
2022/10/03 00:15:53;;;;;;;19.58;13.20;;;;;;;9.54;100.00;101244.34;5022872;28;20208;-72
2022/10/03 00:18:34;;;;;;;23.30;14.02;;;;;;;9.43;100.00;101241.06;5010749;28;20206;-72
2022/10/03 00:21:13;;;;;;;18.25;12.55;;;;;;;9.33;100.00;101259.22;5020956;28;20213;-74
2022/10/03 00:23:49;;;;;;;19.83;13.93;;;;;;;9.34;100.00;101247.56;5015907;28;20197;-73
2022/10/03 00:26:29;;;;;;;21.50;14.70;;;;;;;9.18;100.00;101249.78;5023839;28;20206;-72
2022/10/03 00:29:15;;;;;;;23.10;13.00;;;;;;;9.12;100.00;101251.75;5019544;28;20221;-73
2022/10/03 00:31:52;;;;;;;22.50;13.93;;;;;;;9.01;100.00;101251.16;5015350;28;20205;-74
2022/10/03 00:34:27;;;;;;;27.30;14.55;;;;;;;8.98;100.00;101254.78;5014780;28;20587;-74
2022/10/03 00:37:09;;;;;;;20.98;14.45;;;;;;;8.98;100.00;101254.78;5015892;28;20208;-72
2022/10/03 00:39:50;;;;;;;20.90;13.02;;;;;;;8.95;100.00;101254.84;5013329;28;20245;-73
2022/10/03 00:43:04;;;;;;;20.83;13.90;;;;;;;8.97;100.00;101256.56;5006705;28;20196;-73
2022/10/03 00:45:54;;;;;;;23.23;13.73;;;;;;;8.92;100.00;101254.94;5010579;28;20213;-74
2022/10/03 00:48:57;;;;;;;23.90;15.80;;;;;;;8.86;100.00;101253.28;5011723;28;20333;-73
2022/10/03 00:51:41;;;;;;;24.73;12.95;;;;;;;8.79;100.00;101254.34;4950222;28;20212;-73
2022/10/03 00:54:28;;;;;;;25.10;14.43;;;;;;;8.83;100.00;101265.91;4956612;28;20295;-72
2022/10/03 00:57:15;;;;;;;26.35;15.93;;;;;;;9.05;100.00;101260.91;4957197;29;20321;-74
2022/10/03 01:00:16;;;;;;;29.10;16.63;;;;;;;9.16;100.00;101258.81;4956930;28;20236;-74
2022/10/03 01:02:54;;;;;;;32.58;18.23;;;;;;;9.34;100.00;101266.41;4952436;28;20230;-74
2022/10/03 01:05:33;;;;;;;30.17;17.38;;;;;;;9.40;100.00;101257.25;4964841;28;20199;-74
2022/10/03 01:08:33;;;;;;;23.98;14.18;;;;;;;9.22;100.00;101264.00;4950524;29;20278;-73
2022/10/03 01:11:13;;;;;;;19.98;13.70;;;;;;;9.23;100.00;101268.47;4952828;28;20214;-73
2022/10/03 01:13:55;;;;;;;20.65;12.45;;;;;;;9.13;100.00;101259.75;4951256;28;20412;-74
2022/10/03 01:16:30;;;;;;;17.23;10.32;;;;;;;8.79;100.00;101267.78;4957121;28;20277;-74
2022/10/03 01:19:08;;;;;;;16.88;10.48;;;;;;;8.64;100.00;101274.41;4964341;28;20700;-74
2022/10/03 01:21:42;;;;;;;24.92;14.35;;;;;;;8.77;100.00;101280.34;4961435;28;20210;-74
2022/10/03 01:24:45;;;;;;;27.63;15.05;;;;;;;8.73;100.00;101279.56;4959127;28;20204;-74
2022/10/03 01:27:15;;;;;;;22.10;12.88;;;;;;;8.64;100.00;101290.53;4951938;28;20676;-74
2022/10/03 01:32:43;;;;;;;26.33;15.57;;;;;;;8.63;100.00;101291.44;5017503;28;20211;-74
2022/10/03 01:35:21;;;;;;;32.15;21.38;;;;;;;8.59;100.00;101289.72;5013711;28;20204;-75
2022/10/03 01:37:58;;;;;;;26.55;16.70;;;;;;;8.62;100.00;101303.09;5015230;28;20211;-74
2022/10/03 01:40:29;;;;;;;26.90;15.65;;;;;;;8.61;100.00;101298.63;5014086;28;20589;-73
2022/10/03 01:43:06;;;;;;;26.63;15.15;;;;;;;8.63;100.00;101298.59;5016620;28;20203;-72
2022/10/03 01:45:46;;;;;;;29.20;16.63;;;;;;;8.61;100.00;101300.44;5008465;28;20205;-72
2022/10/03 01:48:21;;;;;;;25.00;15.55;;;;;;;8.61;100.00;101306.69;5018113;28;20473;-72
2022/10/03 01:50:59;;;;;;;29.00;17.05;;;;;;;8.54;100.00;101303.25;5008718;28;20197;-73
2022/10/03 01:53:38;;;;;;;27.55;15.98;;;;;;;8.56;100.00;101306.78;5012159;28;20215;-71
2022/10/03 01:56:12;;;;;;;24.58;15.18;;;;;;;8.67;100.00;101309.25;5017481;28;20247;-72
2022/10/03 01:58:51;;;;;;;32.58;16.67;;;;;;;8.78;100.00;101309.00;5011040;28;20234;-73
2022/10/03 02:01:25;;;;;;;27.55;17.20;;;;;;;8.79;100.00;101318.81;5017954;28;20224;-73
2022/10/03 02:04:01;;;;;;;27.33;17.73;;;;;;;8.72;100.00;101314.50;5019043;28;20200;-73
2022/10/03 02:06:36;;;;;;;32.45;17.85;;;;;;;8.65;100.00;101310.19;5019342;28;20204;-73
2022/10/03 02:09:10;;;;;;;22.50;14.85;;;;;;;8.52;100.00;101312.28;5023390;28;20366;-73
2022/10/03 02:11:41;;;;;;;21.65;11.60;;;;;;;8.36;100.00;101307.19;5010758;28;20192;-74
2022/10/03 02:14:23;;;;;;;19.48;12.02;;;;;;;8.22;100.00;101311.13;5014678;28;20199;-73
2022/10/03 02:16:59;;;;;;;25.48;14.90;;;;;;;8.18;100.00;101310.28;5011087;28;20201;-73
2022/10/03 02:19:29;;;;;;;34.25;17.58;;;;;;;8.32;100.00;101313.56;5012332;28;20232;-73
2022/10/03 02:21:57;;;;;;;30.38;18.85;;;;;;;8.40;100.00;101316.13;5017535;28;20277;-73
2022/10/03 02:24:38;;;;;;;31.67;16.33;;;;;;;8.41;100.00;101323.28;5015255;28;20204;-73
2022/10/03 02:27:49;;;;;;;34.83;18.17;;;;;;;8.44;100.00;101320.50;5003825;28;20237;-73
2022/10/03 02:30:21;;;;;;;30.15;18.20;;;;;;;8.44;100.00;101325.88;5013317;28;20227;-72
2022/10/03 02:33:32;;;;;;;36.90;18.92;;;;;;;8.49;100.00;101323.97;5003344;28;20666;-74
2022/10/03 02:36:37;;;;;;;37.83;19.10;;;;;;;8.43;100.00;101323.22;5007268;28;20559;-73
2022/10/03 02:39:38;;;;;;;37.17;21.60;;;;;;;8.44;100.00;101328.56;4932829;29;20228;-73
2022/10/03 02:42:41;;;;;;;18.92;11.90;;;;;;;8.27;100.00;101333.34;4944730;29;20208;-74
2022/10/03 02:45:50;;;;;;;28.63;17.00;;;;;;;8.14;100.00;101328.25;4925798;29;20216;-74
2022/10/03 02:48:49;;;;;;;36.22;16.67;;;;;;;8.18;100.00;101325.50;4923465;29;20207;-74
2022/10/03 02:51:40;;;;;;;29.40;17.38;;;;;;;8.22;100.00;101329.91;4938351;29;20207;-72
2022/10/03 02:54:51;;;;;;;30.20;17.83;;;;;;;8.29;100.00;101326.16;4928085;29;20622;-74
2022/10/03 02:58:01;;;;;;;23.15;14.40;;;;;;;8.38;100.00;101333.13;4874745;29;20358;-72
2022/10/03 03:00:49;;;;;;;23.60;13.23;;;;;;;7.98;100.00;101336.63;4863396;29;20257;-73
2022/10/03 03:03:31;;;;;;;28.40;16.25;;;;;;;8.28;100.00;101343.19;4878511;29;20209;-74
2022/10/03 03:06:28;;;;;;;33.72;17.63;;;;;;;8.44;100.00;101338.41;4873408;29;20208;-74
2022/10/03 03:09:13;;;;;;;32.53;18.15;;;;;;;8.54;100.00;101342.66;4870467;29;20236;-74
2022/10/03 03:12:22;;;;;;;21.23;13.48;;;;;;;8.34;100.00;101335.91;4876362;29;20201;-73
2022/10/03 03:15:35;;;;;;;20.67;13.43;;;;;;;8.27;100.00;101341.41;4869686;29;20956;-73
2022/10/03 03:18:11;;;;;;;22.45;13.20;;;;;;;8.07;100.00;101348.09;4961811;28;20209;-73
2022/10/03 03:20:54;;;;;;;24.70;14.50;;;;;;;8.01;100.00;101353.56;4951763;28;20225;-73
2022/10/03 03:23:38;;;;;;;34.33;16.20;;;;;;;8.01;100.00;101356.25;4955920;28;20613;-73
2022/10/03 03:26:30;;;;;;;27.35;14.57;;;;;;;7.94;100.00;101350.13;4956428;28;20664;-72
2022/10/03 03:29:09;;;;;;;20.33;13.80;;;;;;;7.78;100.00;101356.69;4952715;28;20381;-72
2022/10/03 03:31:46;;;;;;;18.40;12.70;;;;;;;7.79;100.00;101352.22;4955615;28;20673;-75
2022/10/03 03:34:21;;;;;;;19.20;13.23;;;;;;;7.75;100.00;101355.84;4986910;28;20204;-72
2022/10/03 03:36:55;;;;;;;25.95;13.50;;;;;;;7.62;100.00;101364.13;5015918;28;20198;-71
2022/10/03 03:39:57;;;;;;;19.88;11.68;;;;;;;7.55;100.00;101359.75;5009896;28;20606;-74
2022/10/03 03:42:54;;;;;;;18.45;12.25;;;;;;;7.48;100.00;101368.84;5005418;28;20290;-72
2022/10/03 03:45:43;;;;;;;20.17;11.65;;;;;;;7.44;100.00;101365.34;5010129;28;20588;-74
2022/10/03 03:48:49;;;;;;;16.33;9.70;;;;;;;7.42;100.00;101363.59;5009494;28;20557;-72
2022/10/03 03:51:25;;;;;;;15.95;11.45;;;;;;;7.41;100.00;101364.50;5003687;28;20615;-73
2022/10/03 03:54:18;;;;;;;22.92;12.98;;;;;;;7.44;100.00;101370.69;5023459;28;20195;-74
2022/10/03 03:57:23;;;;;;;21.10;10.93;;;;;;;7.46;100.00;101370.66;5010124;28;20275;-74
2022/10/03 04:00:06;;;;;;;21.60;11.52;;;;;;;7.41;100.00;101375.22;4953193;29;20235;-75
2022/10/03 04:02:51;;;;;;;19.33;12.23;;;;;;;7.41;100.00;101369.84;4955342;28;20202;-73
2022/10/03 04:05:30;;;;;;;18.80;11.18;;;;;;;7.43;100.00;101385.00;4953434;28;20295;-74
2022/10/03 04:08:15;;;;;;;20.23;12.63;;;;;;;7.49;100.00;101381.34;4959500;28;20202;-75
2022/10/03 04:10:53;;;;;;;20.65;13.00;;;;;;;7.40;100.00;101384.19;4960072;28;20193;-74
2022/10/03 04:13:41;;;;;;;17.77;11.68;;;;;;;7.47;100.00;101383.16;4954574;29;20622;-73
2022/10/03 04:19:29;;;;;;;21.60;12.67;;;;;;;7.45;100.00;101393.03;4957666;28;20337;-72
2022/10/03 04:22:10;;;;;;;19.45;11.90;;;;;;;7.41;100.00;101396.66;4953782;28;20437;-75
2022/10/03 04:25:03;;;;;;;18.67;10.57;;;;;;;7.41;100.00;101393.97;4977879;28;20193;-71
2022/10/03 04:27:47;;;;;;;16.90;11.15;;;;;;;7.30;100.00;101394.13;4981270;28;20215;-72
2022/10/03 04:30:16;;;;;;;19.30;12.30;;;;;;;7.35;100.00;101404.78;4977191;28;20327;-73
2022/10/03 04:33:24;;;;;;;21.80;10.75;;;;;;;7.28;100.00;101404.91;4970221;28;20229;-72
2022/10/03 04:36:32;;;;;;;18.55;10.23;;;;;;;7.31;100.00;101406.66;4987979;28;20202;-73
2022/10/03 04:39:09;;;;;;;16.60;9.75;;;;;;;7.43;100.00;101410.91;5031601;28;20283;-73
2022/10/03 04:41:44;;;;;;;22.48;11.70;;;;;;;7.44;100.00;101410.00;5026191;28;20212;-73
2022/10/03 04:44:26;;;;;;;17.33;10.43;;;;;;;7.60;100.00;101413.31;5029281;28;20204;-73
2022/10/03 04:46:59;;;;;;;20.35;11.00;;;;;;;7.71;100.00;101405.97;5032146;28;20209;-73
2022/10/03 04:49:35;;;;;;;17.98;11.23;;;;;;;7.80;100.00;101410.28;5030952;28;20226;-75
2022/10/03 04:52:13;;;;;;;18.10;11.07;;;;;;;7.82;100.00;101398.59;5036631;28;20198;-72
2022/10/03 04:54:48;;;;;;;14.77;10.15;;;;;;;7.92;100.00;101402.03;5014413;28;20210;-74
2022/10/03 04:57:25;;;;;;;27.70;14.52;;;;;;;8.29;100.00;101409.38;5006793;28;20203;-73
2022/10/03 05:00:00;;;;;;;33.72;17.13;;;;;;;8.67;100.00;101405.94;5011104;28;20238;-74
2022/10/03 05:02:36;;;;;;;19.00;12.45;;;;;;;8.46;100.00;101403.72;5013717;28;20203;-74
2022/10/03 05:05:40;;;;;;;17.70;11.93;;;;;;;8.36;100.00;101406.53;5021339;28;20770;-74
2022/10/03 05:08:19;;;;;;;22.15;13.57;;;;;;;8.66;100.00;101411.31;5025398;28;20260;-75
2022/10/03 05:11:00;;;;;;;17.80;12.32;;;;;;;8.45;100.00;101408.16;5027742;28;20574;-74
2022/10/03 05:13:43;;;;;;;20.15;10.45;;;;;;;8.48;100.00;101412.59;5021359;28;20201;-74
2022/10/03 05:16:21;;;;;;;27.35;14.75;;;;;;;8.57;100.00;101409.75;5025459;28;20226;-75
2022/10/03 05:18:53;;;;;;;25.40;15.30;;;;;;;8.92;100.00;101406.28;5020811;28;20287;-77
2022/10/03 05:21:33;;;;;;;27.90;17.67;;;;;;;9.12;100.00;101407.63;5019510;28;20212;-74
2022/10/03 05:24:14;;;;;;;34.33;17.65;;;;;;;9.23;100.00;101413.63;5015900;28;20197;-76
2022/10/03 05:26:46;;;;;;;26.38;16.10;;;;;;;9.30;100.00;101422.44;5004995;28;20620;-73
2022/10/03 05:29:24;;;;;;;27.35;17.95;;;;;;;9.39;100.00;101419.53;5011887;28;20294;-75
2022/10/03 05:32:06;;;;;;;30.20;17.77;;;;;;;9.45;100.00;101423.84;5016641;28;20622;-73
2022/10/03 05:34:50;;;;;;;34.70;17.70;;;;;;;9.48;100.00;101421.13;5018289;28;20230;-72
2022/10/03 05:37:44;;;;;;;33.35;14.90;;;;;;;9.25;100.00;101419.88;5018926;28;20207;-73
2022/10/03 05:40:19;;;;;;;17.42;12.13;;;;;;;9.13;100.00;101421.00;5016827;28;20232;-75
2022/10/03 05:43:01;;;;;;;17.50;13.82;;;;;;;9.19;100.00;101420.00;5013167;28;20245;-73
2022/10/03 05:45:32;;;;;;;22.17;12.52;;;;;;;9.22;100.00;101430.66;5017983;28;20204;-74
2022/10/03 05:48:19;;;;;;;30.90;17.70;;;;;;;9.40;100.00;101426.66;5021817;28;20209;-74
2022/10/03 05:51:12;;;;;;;36.47;18.38;;;;;;;9.62;100.00;101432.41;5019196;28;20237;-74
2022/10/03 05:54:17;;;;;;;26.88;16.33;;;;;;;9.72;100.00;101422.28;5023807;28;20194;-74
2022/10/03 05:57:12;;;;;;;29.67;16.88;;;;;;;9.91;100.00;101428.09;5010819;28;20201;-75
2022/10/03 06:00:00;;;;;;;30.35;18.10;;;;;;;10.10;100.00;101423.97;5045638;22;20231;-74
2022/10/03 06:03:00;;;;;;;32.95;17.60;;;;;;;10.24;100.00;101431.66;5031492;28;20213;-75
2022/10/03 06:05:34;;;;;;;32.90;18.60;;;;;;;10.32;100.00;101432.38;5030155;28;20571;-74
2022/10/03 06:08:22;;;;;;;28.27;17.30;;;;;;;10.25;100.00;101425.38;5029102;28;20222;-72
2022/10/03 06:11:01;;;;;;;30.17;17.88;;;;;;;10.25;100.00;101443.34;5017610;28;20226;-72
2022/10/03 06:13:42;;;;;;;31.58;17.88;;;;;;;10.34;100.00;101441.28;5029067;28;20216;-73
2022/10/03 06:16:26;;;;;;;28.77;16.80;;;;;;;10.34;100.00;101440.41;5024218;28;20213;-72
2022/10/03 06:19:19;;;;;;;34.03;16.42;;;;;;;10.33;100.00;101447.59;5021864;28;20198;-74
2022/10/03 06:22:23;;;;;;;31.02;18.33;;;;;;;10.42;100.00;101450.06;5026386;28;20220;-73
2022/10/03 06:25:35;;;;;;;38.42;20.65;;;;;;;10.47;100.00;101451.72;5024355;28;20202;-74
2022/10/03 06:28:45;;;;;;;33.85;19.08;;;;;;;10.56;100.00;101451.44;5019221;28;20216;-71
2022/10/03 06:31:39;;;;;;;32.72;18.77;;;;;;;10.63;100.00;101458.44;5021160;28;20202;-75
2022/10/03 06:34:30;;;;;;;30.55;17.08;;;;;;;10.79;100.00;101464.28;5026136;28;20197;-76
2022/10/03 06:37:23;;;;;;;29.30;16.30;;;;;;;10.81;100.00;101467.81;5027615;28;20202;-74
2022/10/03 06:40:33;;;;;;;28.45;16.10;;;;;;;10.90;100.00;101470.25;5032410;28;20225;-75
2022/10/03 06:43:29;;;;;;;24.52;14.00;;;;;;;10.87;100.00;101474.81;5030667;28;20198;-74
2022/10/03 06:46:37;;;;;;;22.65;15.15;;;;;;;10.92;100.00;101481.84;5031007;28;20190;-73
2022/10/03 06:49:32;;;;;;;21.70;13.60;;;;;;;11.05;100.00;101485.06;5031852;28;20226;-74
2022/10/03 06:52:29;;;;;;;24.48;14.68;;;;;;;11.16;100.00;101491.00;5030089;28;20210;-75
2022/10/03 06:55:31;;;;;;;26.80;14.73;;;;;;;11.41;100.00;101493.81;5026959;28;20209;-73
2022/10/03 06:58:36;;;;;;;26.00;14.65;;;;;;;11.48;100.00;101491.81;5025804;28;20280;-75
2022/10/03 07:01:31;;;;;;;24.83;15.02;;;;;;;11.67;100.00;101493.00;5030788;28;20273;-72
2022/10/03 07:04:32;;;;;;;20.50;13.60;;;;;;;11.72;100.00;101503.63;5029111;28;20198;-74
2022/10/03 07:07:16;;;;;;;22.27;12.88;;;;;;;11.88;100.00;101507.63;5023478;28;20197;-73
2022/10/03 07:10:04;;;;;;;22.38;13.80;;;;;;;12.01;100.00;101515.34;5024358;28;20218;-75
2022/10/03 07:13:01;;;;;;;18.30;12.85;;;;;;;12.23;100.00;101513.66;5034548;28;20190;-73
2022/10/03 07:16:02;;;;;;;22.05;12.95;;;;;;;12.24;100.00;101512.72;5029035;28;20205;-74
2022/10/03 07:19:01;;;;;;;28.45;14.40;;;;;;;12.55;100.00;101519.75;5028707;28;20198;-75
2022/10/03 07:21:48;;;;;;;19.23;12.65;;;;;;;12.58;100.00;101514.22;5030644;28;20288;-76
2022/10/03 07:25:00;;;;;;;22.58;13.13;;;;;;;12.78;100.00;101509.94;5025704;28;20209;-75
2022/10/03 07:27:44;;;;;;;18.55;12.65;;;;;;;12.70;100.00;101510.19;5027956;28;20689;-76
2022/10/03 07:30:16;;;;;;;22.88;14.15;;;;;;;12.85;100.00;101516.88;5028006;28;20228;-75
2022/10/03 07:33:24;;;;;;;19.52;12.93;;;;;;;13.27;100.00;101535.09;5033810;28;20202;-77
2022/10/03 07:39:29;;;;;;;22.13;15.25;;;;;;;13.90;100.00;101541.63;5029395;28;20225;-75
2022/10/03 07:42:31;;;;;;;20.00;13.43;;;;;;;14.03;100.00;101538.44;5024390;28;20226;-76
2022/10/03 07:45:29;;;;;;;22.25;14.10;;;;;;;14.29;100.00;101548.16;5031762;28;20846;-75
2022/10/03 07:48:13;;;;;;;21.83;13.30;;;;;;;14.38;100.00;101535.09;5028951;28;20264;-77
2022/10/03 07:50:56;;;;;;;19.88;13.57;;;;;;;14.43;100.00;101517.78;5018416;28;20229;-76
2022/10/03 07:53:51;;;;;;;22.58;14.85;;;;;;;15.49;100.00;101512.91;5034407;28;20225;-74
2022/10/03 07:56:38;;;;;;;23.02;14.05;;;;;;;17.34;100.00;101502.41;5027047;28;20202;-72
2022/10/03 07:59:39;;;;;;;23.00;14.68;;;;;;;19.15;100.00;101501.59;5030074;28;20235;-75
2022/10/03 08:02:25;;;;;;;21.98;12.45;;;;;;;19.38;100.00;101506.47;4955494;28;20229;-73
2022/10/03 08:05:18;;;;;;;18.60;10.47;;;;;;;19.83;100.00;101495.41;4981313;28;20188;-74
2022/10/03 08:08:13;;;;;;;19.90;10.77;;;;;;;21.61;91.87;101502.00;4970724;28;20462;-75
2022/10/03 08:11:14;;;;;;;11.47;9.47;;;;;;;21.32;76.88;101504.13;4968612;28;20467;-75
2022/10/03 08:13:59;;;;;;;14.20;9.40;;;;;;;20.35;73.42;101500.03;4895997;29;20450;-76
2022/10/03 08:16:49;;;;;;;10.87;7.80;;;;;;;21.64;71.14;101507.28;4885433;29;20462;-74
2022/10/03 08:19:29;;;;;;;10.87;8.93;;;;;;;21.53;70.63;101509.94;4898471;29;20479;-75
2022/10/03 08:22:06;;;;;;;12.60;8.20;;;;;;;22.10;64.36;101505.66;4902361;29;20475;-75
2022/10/03 08:25:19;;;;;;;10.53;8.00;;;;;;;23.76;61.68;101514.44;4899738;29;20458;-75
2022/10/03 08:28:23;;;;;;;11.20;8.63;;;;;;;23.37;58.89;101505.72;4894251;29;20510;-75
2022/10/03 08:31:14;;;;;;;9.20;7.30;;;;;;;24.43;56.64;101504.22;4884337;29;20474;-74
2022/10/03 08:33:56;;;;;;;9.43;7.33;;;;;;;24.18;58.85;101510.97;4893955;29;20471;-73
2022/10/03 08:36:50;;;;;;;10.10;7.70;;;;;;;24.12;53.20;101521.47;4898764;29;20964;-75
2022/10/03 08:39:55;;;;;;;13.30;7.57;;;;;;;24.30;51.88;101520.91;4938739;28;20566;-74
2022/10/03 08:42:56;;;;;;;10.30;6.90;;;;;;;24.01;51.37;101513.25;4951939;28;20514;-72
2022/10/03 08:45:58;;;;;;;7.57;6.70;;;;;;;24.83;49.39;101517.28;4955367;29;20847;-73
2022/10/03 08:48:59;;;;;;;11.07;7.03;;;;;;;25.17;47.44;101521.53;4951999;28;20496;-74
2022/10/03 08:52:15;;;;;;;10.53;6.23;;;;;;;25.30;45.34;101515.81;5023680;28;20452;-75
2022/10/03 08:54:56;;;;;;;11.20;6.43;;;;;;;24.89;49.41;101516.72;4972941;28;20468;-74
2022/10/03 08:57:52;;;;;;;8.80;6.83;;;;;;;27.13;43.36;101523.53;4974135;28;20469;-76
2022/10/03 09:00:20;;;;;;;10.97;5.97;;;;;;;27.08;41.35;101512.06;4894359;29;20490;-77
2022/10/03 09:03:35;;;;;;;7.17;5.73;;;;;;;27.27;41.58;101511.13;4905449;29;21070;-75
2022/10/03 09:06:37;;;;;;;8.53;5.60;;;;;;;28.45;40.09;101507.50;4898493;29;20919;-75
2022/10/03 09:09:35;;;;;;;7.57;4.90;;;;;;;28.29;39.12;101510.13;4902650;29;20856;-75
2022/10/03 09:12:43;;;;;;;8.47;5.00;;;;;;;28.31;39.01;101512.72;4896873;29;20642;-75
2022/10/03 09:15:36;;;;;;;7.70;5.20;;;;;;;29.36;37.56;101508.16;4842304;29;20452;-75
2022/10/03 09:18:29;;;;;;;14.03;5.97;;;;;;;29.71;35.71;101505.22;4807913;29;20463;-75
2022/10/03 09:21:21;;;;;;;5.17;4.70;;;;;;;28.89;36.00;101507.50;4797816;29;20509;-76
2022/10/03 09:24:14;;;;;;;6.90;4.83;;;;;;;28.85;37.02;101500.56;4799857;29;20463;-75
2022/10/03 09:27:18;;;;;;;9.03;5.63;;;;;;;29.10;35.93;101504.38;4804690;29;20494;-74
2022/10/03 09:30:09;;;;;;;7.13;4.73;;;;;;;29.38;36.43;101497.78;4852288;29;20492;-76
2022/10/03 09:32:59;;;;;;;6.60;4.00;;;;;;;28.90;36.19;101497.31;4868880;29;20495;-74
2022/10/03 09:35:55;;;;;;;6.90;3.97;;;;;;;29.41;35.56;101500.19;4855773;29;20814;-73
2022/10/03 09:39:03;;;;;;;7.50;4.17;;;;;;;30.30;33.40;101513.53;4924708;29;20986;-75
2022/10/03 09:41:55;;;;;;;7.63;4.20;;;;;;;30.59;33.43;101506.56;4934094;29;20441;-72
2022/10/03 09:44:39;;;;;;;4.20;3.40;;;;;;;30.27;34.14;101501.88;4933907;29;20465;-73
2022/10/03 09:47:44;;;;;;;6.57;4.10;;;;;;;30.54;34.16;101515.44;4930321;29;20472;-75
2022/10/03 09:50:50;;;;;;;4.10;3.73;;;;;;;30.20;33.54;101509.16;4943480;29;20925;-74
2022/10/03 09:53:54;;;;;;;4.90;3.80;;;;;;;30.96;33.11;101510.75;4990568;28;20434;-75
2022/10/03 09:56:54;;;;;;;4.97;2.93;;;;;;;29.57;34.17;101499.41;5031364;28;20453;-75
2022/10/03 09:59:36;;;;;;;4.70;3.07;;;;;;;31.52;31.71;101507.97;5033147;28;20847;-74
2022/10/03 10:02:27;;;;;;;6.03;4.60;;;;;;;31.52;30.45;101511.66;5029787;28;20456;-73
2022/10/03 10:05:11;;;;;;;8.13;4.30;;;;;;;31.57;31.71;101511.13;5028958;28;20437;-76
2022/10/03 10:08:04;;;;;;;3.63;2.60;;;;;;;32.95;29.90;101510.34;5027532;28;20452;-76
2022/10/03 10:11:04;;;;;;;5.63;2.57;;;;;;;34.45;27.87;101507.16;5032778;28;20467;-76
2022/10/03 10:14:19;;;;;;;4.63;2.20;;;;;;;34.40;26.84;101509.69;4971815;28;20439;-74
2022/10/03 10:17:15;;;;;;;3.40;2.47;;;;;;;32.60;29.39;101505.22;4920691;29;20460;-76
2022/10/03 10:19:54;;;;;;;3.77;2.10;;;;;;;28.78;32.06;101490.28;4877980;29;20896;-74
2022/10/03 10:22:51;;;;;;;5.23;2.77;;;;;;;27.69;34.98;101491.28;4880140;29;20465;-74
2022/10/03 10:25:44;;;;;;;6.07;2.77;;;;;;;27.51;36.11;101488.47;4875804;29;20467;-74
2022/10/03 10:28:32;;;;;;;4.30;2.37;;;;;;;26.80;36.70;101476.06;4874576;29;20456;-73
2022/10/03 10:31:32;;;;;;;3.70;2.20;;;;;;;30.20;32.68;101478.59;4877636;29;20980;-74
2022/10/03 10:34:32;;;;;;;3.50;1.63;;;;;;;30.99;29.95;101484.50;4876712;29;21013;-74
2022/10/03 10:37:35;;;;;;;3.50;1.90;;;;;;;28.83;32.60;101474.00;4874435;29;20491;-75
2022/10/03 10:40:51;;;;;;;3.37;1.73;;;;;;;26.73;34.55;101476.78;4871275;29;20569;-72
2022/10/03 10:43:53;;;;;;;3.47;1.80;;;;;;;26.28;36.31;101466.38;4840628;29;20895;-74
2022/10/03 10:46:45;;;;;;;2.83;1.60;;;;;;;24.79;38.47;101463.47;4839237;29;20823;-74
2022/10/03 10:50:00;;;;;;;3.30;1.73;;;;;;;24.39;39.57;101461.44;4866998;29;20890;-75
2022/10/03 10:52:49;;;;;;;3.23;1.97;;;;;;;24.14;39.46;101460.81;4929482;29;20469;-75
2022/10/03 10:55:52;;;;;;;3.90;1.57;;;;;;;23.49;40.71;101465.34;4912814;29;20545;-73
2022/10/03 10:59:00;;;;;;;3.30;1.63;;;;;;;23.40;41.67;101466.97;4894956;29;20455;-74
2022/10/03 11:02:07;;;;;;;3.67;1.87;;;;;;;22.90;42.98;101458.22;4900141;29;20470;-75
2022/10/03 11:05:28;;;;;;;3.27;2.20;;;;;;;22.98;43.64;101464.00;4892333;29;20494;-75
2022/10/03 11:08:27;;;;;;;4.30;2.63;;;;;;;23.03;44.55;101464.50;4893451;29;20550;-75
2022/10/03 11:11:24;;;;;;;3.73;2.13;;;;;;;23.07;45.07;101465.16;4894401;29;20470;-75
2022/10/03 11:14:34;;;;;;;5.10;2.37;;;;;;;23.76;43.63;101467.69;4916929;29;20466;-76
2022/10/03 11:17:49;;;;;;;5.30;3.17;;;;;;;22.48;45.42;101461.56;4943559;28;20459;-75
2022/10/03 11:20:57;;;;;;;7.60;6.00;;;;;;;23.57;43.79;101456.47;4946307;28;20494;-74
2022/10/03 11:23:58;;;;;;;6.13;3.00;;;;;;;23.28;44.25;101457.00;4951168;28;20436;-75
2022/10/03 11:27:12;;;;;;;3.10;1.97;;;;;;;23.73;42.60;101459.69;4891161;29;20462;-73
2022/10/03 11:30:15;;;;;;;7.93;3.13;;;;;;;23.73;42.16;101454.19;4883340;29;20481;-75
2022/10/03 11:33:31;;;;;;;6.13;3.53;;;;;;;23.76;42.71;101445.69;4892214;29;20473;-73
2022/10/03 11:36:30;;;;;;;8.83;3.37;;;;;;;23.10;43.36;101453.91;4948902;28;20469;-74
2022/10/03 11:39:03;;;;;;;4.33;2.53;;;;;;;22.89;43.77;101453.75;4968709;28;20459;-73
2022/10/03 11:41:40;;;;;;;4.43;2.70;;;;;;;22.77;43.88;101443.72;4971194;28;20463;-75
2022/10/03 11:44:21;;;;;;;3.77;2.07;;;;;;;23.31;43.32;101456.75;4975071;28;20450;-73
2022/10/03 11:46:56;;;;;;;4.73;1.73;;;;;;;23.55;42.48;101447.47;4982390;28;20527;-73
2022/10/03 11:49:53;;;;;;;4.53;2.40;;;;;;;23.14;42.26;101446.28;4971874;28;20871;-74
2022/10/03 11:52:33;;;;;;;4.43;1.93;;;;;;;23.05;42.85;101446.03;4973255;28;20947;-75
2022/10/03 11:55:20;;;;;;;4.10;2.10;;;;;;;23.21;43.07;101445.66;4973371;28;20476;-77
2022/10/03 11:58:00;;;;;;;3.03;2.13;;;;;;;22.50;44.08;101439.47;4968319;28;20431;-75
2022/10/03 12:00:32;;;;;;;4.17;1.70;;;;;;;22.04;45.31;101437.53;4968016;28;20497;-74
2022/10/03 12:03:13;;;;;;;3.60;2.10;;;;;;;21.84;46.45;101439.06;4997506;28;20442;-74
2022/10/03 12:05:51;;;;;;;5.70;2.60;;;;;;;21.61;47.04;101435.34;5028290;28;20488;-76
2022/10/03 12:11:18;;;;;;;3.57;2.03;;;;;;;21.12;49.23;101436.22;5014723;28;20465;-75
2022/10/03 12:14:07;;;;;;;4.90;2.83;;;;;;;20.82;50.03;101429.25;5028877;28;20509;-73
2022/10/03 12:16:52;;;;;;;5.20;2.47;;;;;;;20.91;50.77;101428.59;5024672;28;20459;-76
2022/10/03 12:19:29;;;;;;;3.17;2.20;;;;;;;20.85;49.20;101433.63;5017160;28;20480;-75
2022/10/03 12:22:04;;;;;;;5.70;2.20;;;;;;;21.04;49.04;101431.31;5033389;28;20452;-75
2022/10/03 12:24:34;;;;;;;2.50;2.20;;;;;;;21.14;48.97;101424.19;5030683;28;20975;-73
2022/10/03 12:27:12;;;;;;;2.63;1.70;;;;;;;21.35;49.41;101421.72;5034783;28;20555;-73
2022/10/03 12:29:44;;;;;;;4.57;2.20;;;;;;;21.16;48.72;101418.56;5020520;28;20476;-76
2022/10/03 12:32:31;;;;;;;5.03;2.47;;;;;;;21.13;49.87;101424.28;5015818;28;20483;-76
2022/10/03 12:35:06;;;;;;;4.97;2.33;;;;;;;20.93;47.62;101421.16;5033501;28;20456;-73
2022/10/03 12:37:44;;;;;;;9.33;6.40;;;;;;;20.85;48.62;101412.63;5028103;28;20466;-73
2022/10/03 12:40:17;;;;;;;9.60;7.20;;;;;;;20.84;49.49;101410.88;5035967;28;20892;-75
2022/10/03 12:42:50;;;;;;;5.83;4.20;;;;;;;21.08;50.03;101408.19;5031765;28;20437;-74
2022/10/03 12:45:26;;;;;;;10.03;2.97;;;;;;;21.39;48.99;101408.63;5027457;28;20779;-76
2022/10/03 12:48:17;;;;;;;3.47;2.10;;;;;;;21.41;48.78;101409.44;5033959;28;20471;-75
2022/10/03 12:50:53;;;;;;;2.90;2.10;;;;;;;21.01;49.35;101407.78;5029650;28;20492;-76
2022/10/03 12:53:31;;;;;;;5.10;2.00;;;;;;;20.48;48.53;101400.66;5031732;28;20476;-73
2022/10/03 12:56:17;;;;;;;4.70;2.00;;;;;;;20.07;51.38;101393.53;5031174;28;20458;-76
2022/10/03 12:59:06;;;;;;;3.93;2.07;;;;;;;19.94;52.67;101397.13;5030761;28;20527;-74
2022/10/03 13:01:46;;;;;;;3.67;2.20;;;;;;;20.05;51.54;101400.97;5034164;28;20964;-74
2022/10/03 13:04:26;;;;;;;3.63;2.10;;;;;;;20.16;49.37;101401.09;5035132;28;20543;-75
2022/10/03 13:07:19;;;;;;;4.80;2.10;;;;;;;19.72;52.09;101396.84;5029587;28;20459;-72